Time;durP1;ratioP1;P1;durP2;ratioP2;P2;SDS_P1;SDS_P2;PMS_P1;PMS_P2;Temp;Humidity;BMP_temperature;BMP_pressure;BME280_temperature;BME280_humidity;BME280_pressure;Samples;Min_cycle;Max_cycle;Signal;HPM_P1;HPM_P2
2022/02/03 00:02:39;;;;;;;25.75;4.18;;;;;;;0.80;100.00;101736.38;4927910;29;20039;-77
2022/02/03 00:05:17;;;;;;;36.80;4.93;;;;;;;1.03;100.00;101727.72;4934083;28;20542;-74
2022/02/03 00:08:06;;;;;;;36.13;5.15;;;;;;;1.20;100.00;101727.06;4927982;29;20051;-77
2022/02/03 00:22:03;;;;;;;33.15;5.20;;;;;;;1.09;100.00;101731.81;4929425;29;20098;-75
2022/02/03 00:27:08;;;;;;;30.35;4.63;;;;;;;1.01;100.00;101737.28;4914065;29;20095;-75
2022/02/03 00:32:38;;;;;;;23.98;4.07;;;;;;;1.10;100.00;101725.75;4944047;28;20086;-75
2022/02/03 00:38:19;;;;;;;25.77;4.32;;;;;;;1.34;100.00;101716.19;4930129;29;20180;-76
2022/02/03 00:51:17;;;;;;;29.73;4.22;;;;;;;1.44;100.00;101706.28;4922119;29;20537;-76
2022/02/03 00:53:43;;;;;;;21.08;3.67;;;;;;;1.41;100.00;101703.81;4929576;29;20043;-77
2022/02/03 00:56:14;;;;;;;31.98;4.18;;;;;;;1.55;100.00;101697.16;4921784;29;20078;-77
2022/02/03 00:58:51;;;;;;;25.15;4.35;;;;;;;1.63;100.00;101693.41;4925257;29;20027;-76
2022/02/03 01:01:19;;;;;;;23.65;3.38;;;;;;;1.68;100.00;101687.16;4928895;29;20039;-75
2022/02/03 01:03:50;;;;;;;33.17;3.53;;;;;;;1.56;100.00;101682.47;4924951;29;20044;-75
2022/02/03 01:06:18;;;;;;;23.02;3.58;;;;;;;1.57;100.00;101678.19;4929650;29;20502;-77
2022/02/03 01:08:47;;;;;;;19.60;3.30;;;;;;;1.52;100.00;101679.19;4933616;29;20122;-76
2022/02/03 01:11:19;;;;;;;31.95;3.67;;;;;;;1.58;100.00;101683.25;4948418;28;20031;-76
2022/02/03 01:14:01;;;;;;;31.27;3.70;;;;;;;1.53;100.00;101662.78;4910894;29;20040;-76
2022/02/03 01:16:49;;;;;;;26.70;3.60;;;;;;;1.59;100.00;101676.34;4923342;29;20060;-77
2022/02/03 01:33:33;;;;;;;31.08;3.60;;;;;;;1.83;100.00;101670.13;4907003;29;20114;-76
2022/02/03 01:44:05;;;;;;;21.20;2.90;;;;;;;1.91;100.00;101656.84;4929366;29;20075;-75
2022/02/03 01:46:50;;;;;;;26.52;3.67;;;;;;;1.88;100.00;101655.22;4927212;29;20032;-75
2022/02/03 01:49:17;;;;;;;30.08;3.80;;;;;;;1.78;100.00;101653.13;4944524;29;20038;-75
2022/02/03 01:51:54;;;;;;;22.50;2.90;;;;;;;1.69;100.00;101650.00;4928988;29;20421;-75
2022/02/03 01:54:27;;;;;;;12.10;2.70;;;;;;;1.68;100.00;101655.28;4928221;29;20071;-75
2022/02/03 01:57:07;;;;;;;22.77;2.90;;;;;;;1.65;100.00;101643.28;4929428;29;20036;-75
2022/02/03 01:59:34;;;;;;;19.95;2.75;;;;;;;1.66;100.00;101642.41;4925453;29;20039;-75
2022/02/03 02:02:02;;;;;;;26.40;3.72;;;;;;;1.68;100.00;101643.19;4940074;29;20192;-75
2022/02/03 02:04:59;;;;;;;16.15;2.92;;;;;;;1.71;100.00;101635.28;4944814;28;20031;-75
2022/02/03 02:07:53;;;;;;;22.00;3.20;;;;;;;1.68;100.00;101617.31;4931290;29;20107;-76
2022/02/03 02:11:09;;;;;;;29.15;2.60;;;;;;;1.74;100.00;101611.84;4907307;29;20040;-75
2022/02/03 02:14:04;;;;;;;26.73;3.33;;;;;;;1.90;100.00;101611.16;4931154;29;20478;-76
2022/02/03 02:19:27;;;;;;;23.02;3.20;;;;;;;2.00;100.00;101598.66;4947788;28;20586;-76
2022/02/03 02:36:59;;;;;;;34.78;4.22;;;;;;;1.97;100.00;101584.09;4926440;29;20031;-74
2022/02/03 02:40:05;;;;;;;22.83;3.50;;;;;;;2.04;100.00;101566.56;4914796;29;20063;-75
2022/02/03 02:42:46;;;;;;;23.98;3.20;;;;;;;2.04;100.00;101569.16;4923659;29;20500;-77
2022/02/03 02:45:15;;;;;;;20.23;2.67;;;;;;;2.12;100.00;101567.88;4910208;29;20067;-76
2022/02/03 02:48:13;;;;;;;26.30;3.17;;;;;;;2.22;100.00;101563.09;4922218;29;20047;-75
2022/02/03 02:50:57;;;;;;;21.25;3.20;;;;;;;2.23;100.00;101564.78;4930274;29;20032;-76
2022/02/03 02:56:42;;;;;;;18.27;3.08;;;;;;;2.27;100.00;101557.72;4922194;29;20054;-75
2022/02/03 03:29:02;;;;;;;25.63;4.10;;;;;;;2.33;100.00;101539.28;4932812;28;20050;-77
2022/02/03 03:32:42;;;;;;;26.65;3.40;;;;;;;2.36;100.00;101508.09;4933521;29;20520;-76
2022/02/03 03:37:45;;;;;;;28.73;3.85;;;;;;;2.42;100.00;101515.53;4934414;29;20027;-76
2022/02/03 03:40:12;;;;;;;25.45;3.75;;;;;;;2.42;100.00;101502.59;4917862;29;20035;-76
2022/02/03 03:42:42;;;;;;;26.00;3.90;;;;;;;2.58;100.00;101504.44;4919441;29;20398;-75
2022/02/03 03:45:10;;;;;;;26.88;6.07;;;;;;;2.55;100.00;101499.41;4937296;29;20895;-76
2022/02/03 03:47:39;;;;;;;32.58;7.13;;;;;;;2.55;100.00;101496.81;4908004;29;20475;-76
2022/02/03 03:50:13;;;;;;;29.20;6.93;;;;;;;2.72;100.00;101500.22;4910369;29;20178;-76
2022/02/03 03:52:49;;;;;;;33.10;7.03;;;;;;;2.75;100.00;101491.50;4916836;29;20565;-77
2022/02/03 03:58:14;;;;;;;29.88;4.88;;;;;;;2.88;100.00;101491.69;4936028;29;20476;-75
2022/02/03 04:01:06;;;;;;;26.08;4.93;;;;;;;2.90;100.00;101490.72;4937480;29;20036;-76
2022/02/03 04:54:40;;;;;;;27.23;7.30;;;;;;;3.03;100.00;101453.78;4918798;29;20518;-75
2022/02/03 05:02:59;;;;;;;28.48;7.38;;;;;;;3.04;100.00;101451.09;4920846;29;20406;-75
2022/02/03 05:06:06;;;;;;;30.48;7.50;;;;;;;3.03;100.00;101441.66;4932174;29;20039;-76
2022/02/03 05:09:15;;;;;;;30.58;7.78;;;;;;;3.07;100.00;101444.91;4929252;29;20031;-76
2022/02/03 05:12:06;;;;;;;31.02;7.95;;;;;;;3.10;100.00;101437.81;4914823;29;20406;-76
2022/02/03 05:24:42;;;;;;;32.47;7.38;;;;;;;3.06;100.00;101415.56;4927147;29;20411;-76
2022/02/03 05:42:45;;;;;;;41.25;9.80;;;;;;;3.00;100.00;101405.53;4910701;29;20089;-77
2022/02/03 05:48:16;;;;;;;33.60;9.02;;;;;;;3.09;100.00;101407.63;4935079;29;20060;-77
2022/02/03 06:11:55;;;;;;;41.65;12.50;;;;;;;3.26;100.00;101372.19;4931647;29;20024;-76
2022/02/03 06:12:54;;;;;;;29.45;11.13;;;;;;;3.31;100.00;101364.97;4931753;29;20043;-75
2022/02/03 06:23:29;;;;;;;34.00;12.30;;;;;;;3.32;100.00;101358.88;4931980;29;20038;-79
2022/02/03 06:27:25;;;;;;;36.72;13.05;;;;;;;3.35;100.00;101350.91;4906627;29;20074;-79
2022/02/03 06:29:00;;;;;;;36.53;12.13;;;;;;;3.31;100.00;101358.06;4930306;29;20201;-77
2022/02/03 06:31:25;;;;;;;39.33;13.35;;;;;;;3.33;100.00;101352.78;4930153;29;20035;-77
2022/02/03 06:33:51;;;;;;;33.60;12.63;;;;;;;3.33;100.00;101336.38;4929668;29;20071;-77
2022/02/03 06:36:16;;;;;;;36.38;13.40;;;;;;;3.38;100.00;101332.59;4910804;29;20319;-77
2022/02/03 06:38:42;;;;;;;31.95;12.95;;;;;;;3.44;100.00;101342.63;4930662;29;20027;-78
2022/02/03 06:41:07;;;;;;;33.25;13.20;;;;;;;3.51;100.00;101340.53;4917501;29;20106;-77
2022/02/03 06:43:33;;;;;;;30.85;13.90;;;;;;;3.49;100.00;101329.44;4935364;29;20039;-77
2022/02/03 06:46:03;;;;;;;27.55;12.32;;;;;;;3.48;100.00;101328.59;4951925;28;20047;-77
2022/02/03 06:48:31;;;;;;;32.85;13.18;;;;;;;3.58;100.00;101328.91;4915040;29;20545;-77
2022/02/03 06:51:05;;;;;;;35.38;13.52;;;;;;;3.58;100.00;101323.72;4917392;29;20028;-78
2022/02/03 06:53:36;;;;;;;28.90;13.45;;;;;;;3.56;100.00;101324.72;4937346;29;20123;-77
2022/02/03 06:58:42;;;;;;;30.73;14.55;;;;;;;3.66;100.00;101316.31;4950425;28;20035;-77
2022/02/03 07:03:38;;;;;;;30.33;15.23;;;;;;;3.73;100.00;101311.63;4933947;29;20040;-79
2022/02/03 07:06:04;;;;;;;31.23;15.50;;;;;;;3.68;100.00;101309.28;4933547;29;20042;-77
2022/02/03 07:08:31;;;;;;;26.88;14.60;;;;;;;3.65;100.00;101311.22;4919249;29;20040;-77
2022/02/03 07:10:57;;;;;;;29.88;15.35;;;;;;;3.69;100.00;101308.38;4934761;29;20043;-77
2022/02/03 07:13:23;;;;;;;32.38;15.75;;;;;;;3.74;100.00;101297.72;4914397;29;20071;-77
2022/02/03 07:15:49;;;;;;;34.10;16.13;;;;;;;3.79;100.00;101307.84;4919939;29;20127;-77
2022/02/03 07:18:17;;;;;;;32.67;14.98;;;;;;;3.87;100.00;101301.28;4930852;29;20096;-77
2022/02/03 07:20:43;;;;;;;32.55;16.20;;;;;;;3.87;100.00;101298.69;4935154;29;20079;-77
2022/02/03 07:23:09;;;;;;;31.27;15.30;;;;;;;3.86;100.00;101299.63;4933527;29;20126;-77
2022/02/03 07:25:36;;;;;;;29.80;16.05;;;;;;;3.85;100.00;101297.94;4933954;29;20063;-77
2022/02/03 07:28:03;;;;;;;31.95;15.05;;;;;;;3.86;100.00;101297.03;4902375;29;20043;-77
2022/02/03 07:30:29;;;;;;;29.52;14.93;;;;;;;3.85;100.00;101297.09;4933198;29;20497;-77
2022/02/03 07:32:58;;;;;;;32.47;16.88;;;;;;;3.90;100.00;101293.31;4915879;29;20122;-78
2022/02/03 07:35:24;;;;;;;34.85;16.27;;;;;;;3.89;100.00;101288.22;4917579;29;20032;-78
2022/02/03 07:37:51;;;;;;;27.48;15.02;;;;;;;3.89;100.00;101283.03;4950025;28;20032;-78
2022/02/03 07:40:18;;;;;;;35.63;16.58;;;;;;;3.93;100.00;101291.47;4912540;29;20034;-77
2022/02/03 07:42:47;;;;;;;32.40;16.50;;;;;;;3.96;100.00;101291.28;4951230;28;20032;-78
2022/02/03 07:45:13;;;;;;;32.42;15.93;;;;;;;3.90;100.00;101287.31;4921647;29;20126;-78
2022/02/03 07:47:47;;;;;;;31.52;16.85;;;;;;;3.99;100.00;101296.28;4928300;29;20036;-78
2022/02/03 07:50:14;;;;;;;34.20;16.98;;;;;;;4.05;100.00;101286.41;4931843;29;20024;-77
2022/02/03 07:52:40;;;;;;;29.83;16.50;;;;;;;4.06;100.00;101288.03;4913591;29;20126;-78
2022/02/03 07:55:06;;;;;;;31.20;16.60;;;;;;;4.09;100.00;101284.44;4914721;29;20115;-77
2022/02/03 07:57:32;;;;;;;30.05;16.60;;;;;;;4.09;100.00;101289.66;4949370;29;20019;-78
2022/02/03 07:59:58;;;;;;;31.38;16.63;;;;;;;4.10;100.00;101292.13;4917682;29;20130;-76
2022/02/03 08:02:24;;;;;;;31.73;15.57;;;;;;;4.08;100.00;101282.78;4947977;28;20561;-78
2022/02/03 08:04:51;;;;;;;36.20;17.75;;;;;;;4.08;100.00;101288.78;4934200;29;20027;-77
2022/02/03 08:07:20;;;;;;;36.38;17.35;;;;;;;4.21;100.00;101290.66;4934330;29;20032;-77
2022/02/03 08:12:13;;;;;;;34.97;17.15;;;;;;;4.35;100.00;101290.69;4917330;29;20070;-77
2022/02/03 08:14:43;;;;;;;35.95;17.50;;;;;;;4.37;100.00;101282.78;4914264;29;20040;-77
2022/02/03 08:17:15;;;;;;;35.75;16.75;;;;;;;4.49;100.00;101282.88;4935172;29;20024;-78
2022/02/03 08:19:52;;;;;;;37.75;16.60;;;;;;;4.42;100.00;101284.16;4933106;29;20028;-77
2022/02/03 08:22:23;;;;;;;41.35;18.48;;;;;;;4.49;100.00;101282.03;4949241;29;20494;-77
2022/02/03 08:30:45;;;;;;;46.25;18.85;;;;;;;4.83;100.00;101275.59;4948777;28;20444;-77
2022/02/03 08:33:16;;;;;;;49.88;20.25;;;;;;;4.83;100.00;101275.59;4949793;29;20062;-77
2022/02/03 08:35:46;;;;;;;53.92;20.60;;;;;;;4.85;100.00;101280.69;4928247;29;20095;-77
2022/02/03 08:40:45;;;;;;;49.25;21.33;;;;;;;4.97;100.00;101268.69;4933090;29;20040;-78
2022/02/03 08:43:12;;;;;;;49.55;21.23;;;;;;;5.03;100.00;101261.34;4948510;29;20074;-77
2022/02/03 08:45:38;;;;;;;50.60;22.08;;;;;;;5.14;100.00;101254.59;4930076;29;20095;-77
2022/02/03 08:48:04;;;;;;;55.67;22.10;;;;;;;5.15;100.00;101264.06;4932616;29;20652;-78
2022/02/03 08:50:32;;;;;;;55.15;22.35;;;;;;;5.19;100.00;101250.75;4931115;29;20035;-77
2022/02/03 08:55:31;;;;;;;42.42;20.30;;;;;;;5.31;100.00;101248.31;4919437;29;20122;-77
2022/02/03 08:58:21;;;;;;;50.47;21.63;;;;;;;5.32;100.00;101245.59;4949886;28;20055;-77
2022/02/03 09:28:20;;;;;;;34.70;16.85;;;;;;;5.95;100.00;101230.16;4937275;29;20110;-77
2022/02/03 09:32:47;;;;;;;35.80;17.45;;;;;;;6.08;100.00;101235.41;4948201;29;20040;-77
2022/02/03 09:34:43;;;;;;;35.60;16.98;;;;;;;6.06;100.00;101230.28;4936035;29;20043;-78
2022/02/03 09:53:05;;;;;;;28.30;14.93;;;;;;;6.24;100.00;101231.63;4934974;29;20050;-76
2022/02/03 09:58:20;;;;;;;28.10;14.85;;;;;;;6.33;100.00;101238.00;4938563;29;20067;-77
2022/02/03 10:03:36;;;;;;;31.92;14.95;;;;;;;6.41;100.00;101238.28;4953396;29;20047;-76
2022/02/03 10:06:11;;;;;;;32.38;15.50;;;;;;;6.37;100.00;101228.19;4940922;29;20031;-76
2022/02/03 10:08:37;;;;;;;29.25;14.10;;;;;;;6.39;100.00;101226.31;4939391;29;20043;-75
2022/02/03 10:11:15;;;;;;;26.80;13.60;;;;;;;6.47;100.00;101229.19;4960627;28;20036;-77
2022/02/03 10:13:43;;;;;;;32.63;15.68;;;;;;;6.56;100.00;101225.13;4934347;29;20059;-76
2022/02/03 10:16:09;;;;;;;38.75;16.85;;;;;;;6.61;100.00;101223.84;4929483;29;20059;-76
2022/02/03 10:18:35;;;;;;;37.80;18.25;;;;;;;6.62;100.00;101222.91;4939265;29;20019;-77
2022/02/03 10:21:02;;;;;;;49.58;21.40;;;;;;;6.73;100.00;101219.53;4964764;28;20055;-76
2022/02/03 10:23:30;;;;;;;54.88;23.48;;;;;;;6.80;100.00;101218.16;4939878;29;20043;-76
2022/02/03 10:26:06;;;;;;;48.75;21.73;;;;;;;6.80;100.00;101205.13;4935669;29;20047;-76
2022/02/03 10:28:35;;;;;;;51.45;23.52;;;;;;;6.85;100.00;101203.94;4965841;29;20311;-77
2022/02/03 10:31:04;;;;;;;58.53;25.95;;;;;;;6.92;100.00;101203.38;4938591;29;20615;-77
2022/02/03 10:33:37;;;;;;;64.70;27.48;;;;;;;6.86;100.00;101197.81;4934401;29;20059;-77
2022/02/03 10:36:11;;;;;;;65.13;27.38;;;;;;;6.97;100.00;101209.13;4916009;29;20327;-77
2022/02/03 10:39:08;;;;;;;65.35;27.42;;;;;;;6.89;100.00;101205.38;4922758;29;20490;-78
2022/02/03 10:42:00;;;;;;;64.82;28.15;;;;;;;6.97;100.00;101198.69;4955694;28;20043;-77
2022/02/03 11:09:00;;;;;;;72.65;31.60;;;;;;;6.98;100.00;101182.06;4910198;29;20153;-76
2022/02/03 11:11:31;;;;;;;73.00;32.60;;;;;;;6.95;100.00;101179.72;4940323;29;20107;-75
2022/02/03 11:13:58;;;;;;;77.05;33.08;;;;;;;6.93;100.00;101168.56;4942140;29;20035;-76
2022/02/03 11:16:24;;;;;;;78.18;32.95;;;;;;;6.94;100.00;101174.59;4928035;29;20138;-76
2022/02/03 11:18:52;;;;;;;76.10;32.80;;;;;;;7.04;100.00;101179.97;4940932;29;20636;-75
2022/02/03 11:21:17;;;;;;;71.82;31.10;;;;;;;6.93;100.00;101171.16;4941076;29;20038;-76
2022/02/03 11:23:51;;;;;;;71.05;31.70;;;;;;;7.00;100.00;101174.16;4923428;29;20051;-76
2022/02/03 11:26:29;;;;;;;70.50;30.25;;;;;;;7.04;100.00;101170.34;4940117;29;20082;-75
2022/02/03 11:29:17;;;;;;;77.38;30.65;;;;;;;6.99;100.00;101162.06;4923793;29;20483;-76
2022/02/03 11:32:08;;;;;;;67.05;29.20;;;;;;;7.09;100.00;101170.84;4935615;29;20043;-76
2022/02/03 11:37:42;;;;;;;59.58;27.13;;;;;;;7.10;100.00;101163.84;4955566;28;20031;-78
2022/02/03 11:40:33;;;;;;;56.40;25.65;;;;;;;7.04;100.00;101156.50;4923364;29;20506;-76
2022/02/03 11:43:25;;;;;;;57.53;26.23;;;;;;;7.09;100.00;101157.81;4928144;29;20071;-75
2022/02/03 11:54:53;;;;;;;45.10;22.05;;;;;;;7.16;100.00;101153.00;4940504;29;20036;-76
2022/02/03 12:13:53;;;;;;;49.85;22.92;;;;;;;6.99;100.00;101133.38;4946554;28;20031;-74
2022/02/03 12:21:51;;;;;;;51.20;25.60;;;;;;;6.86;100.00;101122.19;4918586;29;20036;-76
2022/02/03 12:29:31;;;;;;;57.08;26.83;;;;;;;6.91;100.00;101120.03;4937561;29;20167;-76
2022/02/03 12:39:59;;;;;;;60.33;29.83;;;;;;;6.74;100.00;101118.69;4917107;29;20177;-74
2022/02/03 12:45:22;;;;;;;60.22;25.98;;;;;;;6.69;100.00;101102.56;4929712;29;20126;-75
2022/02/03 12:47:50;;;;;;;50.17;25.63;;;;;;;6.62;100.00;101108.22;4919895;29;20047;-76
2022/02/03 12:50:28;;;;;;;48.28;25.05;;;;;;;6.69;100.00;101107.78;4926325;29;20043;-73
2022/02/03 12:52:56;;;;;;;50.30;24.65;;;;;;;6.71;100.00;101098.88;4916197;29;20072;-75
2022/02/03 12:55:26;;;;;;;45.10;23.70;;;;;;;6.71;100.00;101092.84;4915681;29;20039;-74
2022/02/03 12:57:52;;;;;;;45.22;22.52;;;;;;;6.67;100.00;101075.75;4947386;28;20062;-75
2022/02/03 13:00:33;;;;;;;38.45;21.10;;;;;;;6.75;100.00;101082.06;4925444;29;20066;-74
2022/02/03 13:03:01;;;;;;;44.33;20.67;;;;;;;6.79;100.00;101077.47;4912579;29;20044;-73
2022/02/03 13:05:34;;;;;;;47.10;21.02;;;;;;;6.89;100.00;101080.22;4922527;29;20027;-75
2022/02/03 13:08:04;;;;;;;43.45;20.10;;;;;;;6.90;100.00;101079.28;4926065;29;20040;-74
2022/02/03 13:10:33;;;;;;;37.28;18.75;;;;;;;6.87;100.00;101074.28;4900879;29;20050;-75
2022/02/03 13:13:15;;;;;;;36.63;18.88;;;;;;;6.78;100.00;101070.56;4946426;28;20039;-74
2022/02/03 13:15:43;;;;;;;41.58;19.33;;;;;;;6.74;100.00;101074.34;4928975;29;20861;-74
2022/02/03 13:18:24;;;;;;;36.05;17.75;;;;;;;6.68;100.00;101075.66;4933905;29;20054;-74
2022/02/03 13:21:00;;;;;;;36.95;18.85;;;;;;;6.72;100.00;101071.03;4921376;29;20508;-74
2022/02/03 13:23:28;;;;;;;35.03;18.42;;;;;;;6.73;100.00;101070.09;4926826;29;20024;-74
2022/02/03 13:26:04;;;;;;;33.53;17.08;;;;;;;6.68;100.00;101059.19;4933986;29;20037;-74
2022/02/03 13:28:40;;;;;;;31.25;17.75;;;;;;;6.61;100.00;101059.63;4926970;29;20526;-74
2022/02/03 13:31:20;;;;;;;33.08;17.40;;;;;;;6.56;100.00;101066.13;4917270;29;20071;-74
2022/02/03 13:34:12;;;;;;;36.63;18.08;;;;;;;6.58;100.00;101051.22;4901625;29;20455;-75
2022/02/03 13:36:44;;;;;;;35.03;18.17;;;;;;;6.63;100.00;101049.94;4927899;29;20031;-75
2022/02/03 13:39:24;;;;;;;33.10;17.25;;;;;;;6.56;100.00;101053.94;4932596;29;20394;-75
2022/02/03 13:42:04;;;;;;;34.10;16.85;;;;;;;6.60;100.00;101057.16;4931154;29;20549;-74
2022/02/03 13:44:31;;;;;;;29.30;15.95;;;;;;;6.61;100.00;101051.81;4930617;29;20039;-76
2022/02/03 13:46:56;;;;;;;28.52;15.70;;;;;;;6.55;100.00;101049.66;4931625;29;20172;-75
2022/02/03 13:49:25;;;;;;;31.85;15.65;;;;;;;6.55;100.00;101052.25;4902835;29;20126;-77
2022/02/03 13:52:01;;;;;;;29.27;15.98;;;;;;;6.46;100.00;101054.72;4917955;29;20392;-74
2022/02/03 14:22:00;;;;;;;26.85;14.70;;;;;;;6.40;100.00;101019.50;4917842;29;20079;-76
2022/02/03 14:27:21;;;;;;;29.60;15.85;;;;;;;6.40;100.00;101011.69;4930758;29;20050;-75
2022/02/03 14:29:51;;;;;;;27.40;15.25;;;;;;;6.36;100.00;101011.09;4908515;29;20051;-74
2022/02/03 14:32:27;;;;;;;29.08;15.98;;;;;;;6.33;100.00;101015.69;4946061;29;20385;-74
2022/02/03 14:34:53;;;;;;;30.13;15.93;;;;;;;6.35;100.00;101009.44;4928933;29;20044;-74
2022/02/03 14:42:34;;;;;;;31.65;16.45;;;;;;;6.30;100.00;100992.47;4912125;29;20041;-75
2022/02/03 14:45:01;;;;;;;26.55;14.85;;;;;;;6.27;100.00;100988.31;4941506;28;20517;-75
2022/02/03 14:47:29;;;;;;;33.95;16.75;;;;;;;6.30;100.00;100990.69;4914685;29;20098;-75
2022/02/03 14:49:59;;;;;;;31.00;15.50;;;;;;;6.28;100.00;100991.75;4924188;29;20596;-76
2022/02/03 14:52:29;;;;;;;26.05;15.95;;;;;;;6.21;100.00;100981.78;4932480;29;20505;-76
2022/02/03 15:00:27;;;;;;;22.55;14.25;;;;;;;6.22;100.00;100977.41;4908918;29;20039;-75
2022/02/03 15:02:53;;;;;;;28.45;14.98;;;;;;;6.25;100.00;100969.34;4925951;29;20043;-74
2022/02/03 15:05:25;;;;;;;28.42;14.93;;;;;;;6.23;100.00;100959.06;4919122;28;20043;-75
2022/02/03 15:07:59;;;;;;;30.70;15.15;;;;;;;6.15;100.00;100957.97;4934084;29;20039;-75
2022/02/03 15:15:39;;;;;;;24.75;15.63;;;;;;;6.15;100.00;100960.56;4932828;29;20036;-75
2022/02/03 15:18:05;;;;;;;28.17;14.75;;;;;;;6.21;100.00;100953.13;4919521;29;20040;-76
2022/02/03 15:20:31;;;;;;;26.92;13.63;;;;;;;6.15;100.00;100963.16;4919014;29;20147;-75
2022/02/03 15:22:57;;;;;;;26.15;14.32;;;;;;;6.16;100.00;100955.25;4919205;29;20039;-74
2022/02/03 15:25:23;;;;;;;24.73;14.63;;;;;;;6.13;100.00;100958.06;4913904;29;20041;-74
2022/02/03 15:27:49;;;;;;;24.80;13.27;;;;;;;6.17;100.00;100958.69;4923105;29;20044;-75
2022/02/03 15:30:15;;;;;;;24.42;14.00;;;;;;;6.19;100.00;100954.19;4936253;29;20057;-74
2022/02/03 15:32:43;;;;;;;24.92;13.63;;;;;;;6.33;100.00;100955.75;4936965;29;20363;-75
2022/02/03 15:35:15;;;;;;;22.58;13.70;;;;;;;6.35;100.00;100951.28;4935965;29;20459;-75
2022/02/03 15:37:45;;;;;;;23.33;12.70;;;;;;;6.37;100.00;100954.63;4921087;29;20043;-79
2022/02/03 15:40:17;;;;;;;26.73;12.38;;;;;;;6.40;100.00;100952.63;4925957;29;20050;-79
2022/02/03 15:42:52;;;;;;;20.08;12.98;;;;;;;6.40;100.00;100957.81;4922104;29;20031;-77
2022/02/03 15:45:18;;;;;;;22.85;12.45;;;;;;;6.40;100.00;100957.81;4918814;29;20474;-79
2022/02/03 15:47:49;;;;;;;24.23;12.65;;;;;;;6.42;100.00;100955.06;4947037;28;20040;-79
2022/02/03 15:50:52;;;;;;;18.33;11.70;;;;;;;6.39;100.00;100952.72;4914367;29;20047;-77
2022/02/03 15:56:24;;;;;;;18.42;11.43;;;;;;;6.39;100.00;100947.50;4918107;29;20032;-77
2022/02/03 16:17:45;;;;;;;20.88;12.82;;;;;;;6.24;100.00;100949.47;4920051;29;20032;-76
2022/02/03 16:22:46;;;;;;;20.15;12.18;;;;;;;6.11;100.00;100953.94;4933382;29;20034;-76
2022/02/03 16:54:44;;;;;;;19.80;14.00;;;;;;;6.13;100.00;100908.59;4914519;29;20047;-77
2022/02/03 16:57:16;;;;;;;20.83;13.02;;;;;;;6.13;100.00;100912.97;4916618;29;20032;-76
2022/02/03 16:59:51;;;;;;;21.17;13.20;;;;;;;6.14;100.00;100919.81;4935322;29;20505;-76
2022/02/03 17:02:17;;;;;;;19.23;13.43;;;;;;;6.10;100.00;100919.22;4917968;29;20046;-76
2022/02/03 17:04:43;;;;;;;21.90;13.55;;;;;;;6.07;100.00;100919.47;4904729;29;20028;-78
2022/02/03 17:07:09;;;;;;;20.60;13.60;;;;;;;6.09;100.00;100917.56;4916457;29;20042;-78
2022/02/03 17:09:38;;;;;;;24.63;13.38;;;;;;;6.08;100.00;100923.72;4929375;29;20028;-77
2022/02/03 17:12:04;;;;;;;20.45;14.00;;;;;;;6.01;100.00;100919.94;4934493;29;20040;-77
2022/02/03 17:14:30;;;;;;;23.65;14.55;;;;;;;6.02;100.00;100924.16;4926166;29;20035;-76
2022/02/03 17:16:56;;;;;;;19.45;13.82;;;;;;;6.02;100.00;100924.16;4920368;29;20035;-77
2022/02/03 17:19:22;;;;;;;22.10;13.38;;;;;;;5.97;100.00;100919.31;4935085;28;20521;-76
2022/02/03 17:21:48;;;;;;;20.95;13.65;;;;;;;6.07;100.00;100914.25;4948865;29;20513;-75
2022/02/03 17:24:14;;;;;;;20.88;13.63;;;;;;;6.00;100.00;100907.84;4933223;29;20035;-75
2022/02/03 17:26:53;;;;;;;21.65;14.73;;;;;;;6.03;100.00;100908.44;4910477;29;20039;-79
2022/02/03 17:29:30;;;;;;;22.55;14.30;;;;;;;5.96;100.00;100901.19;4923098;29;20070;-79
2022/02/03 17:32:22;;;;;;;20.92;14.55;;;;;;;5.93;100.00;100896.16;4953608;29;20046;-77
2022/02/03 17:52:17;;;;;;;19.52;14.23;;;;;;;6.00;100.00;100892.22;4934053;29;20102;-80
2022/02/03 17:55:04;;;;;;;21.15;14.73;;;;;;;5.98;100.00;100891.50;4928259;29;20032;-81
2022/02/03 18:06:17;;;;;;;22.85;14.68;;;;;;;5.97;100.00;100895.88;4907120;28;20039;-79
2022/02/03 18:08:28;;;;;;;24.25;14.32;;;;;;;5.98;100.00;100896.69;4926154;29;20166;-79
2022/02/03 18:19:30;;;;;;;20.75;14.68;;;;;;;5.89;100.00;100892.13;4909244;29;20039;-77
2022/02/03 18:29:52;;;;;;;19.48;13.93;;;;;;;5.98;100.00;100887.09;4928020;29;20031;-76
2022/02/03 18:35:07;;;;;;;21.50;14.57;;;;;;;5.83;100.00;100877.78;4913401;29;20504;-74
2022/02/03 18:46:00;;;;;;;22.88;15.07;;;;;;;5.85;100.00;100879.34;4932691;29;20086;-75
2022/02/03 18:53:32;;;;;;;21.45;15.45;;;;;;;5.91;100.00;100877.22;4910078;29;20047;-74
2022/02/03 18:58:55;;;;;;;24.42;16.83;;;;;;;5.88;100.00;100875.69;4932143;29;20031;-75
2022/02/03 20:01:55;;;;;;;31.83;20.83;;;;;;;5.56;100.00;100855.44;4949050;29;20039;-76
2022/02/03 20:04:44;;;;;;;30.63;21.02;;;;;;;5.66;100.00;100853.00;4924856;29;20043;-75
2022/02/03 20:10:04;;;;;;;33.80;20.48;;;;;;;5.68;100.00;100845.09;4913255;29;20503;-76
2022/02/03 20:12:29;;;;;;;34.13;21.38;;;;;;;5.59;100.00;100855.19;4924937;29;20051;-75
2022/02/03 20:14:56;;;;;;;38.33;21.30;;;;;;;5.54;100.00;100854.72;4932283;29;20035;-76
2022/02/03 20:17:22;;;;;;;35.38;22.05;;;;;;;5.58;100.00;100844.94;4931573;28;20062;-76
2022/02/03 20:19:49;;;;;;;36.88;23.00;;;;;;;5.63;100.00;100850.59;4933361;29;20649;-76
2022/02/03 20:22:16;;;;;;;33.88;22.45;;;;;;;5.55;100.00;100851.16;4901908;29;20035;-76
2022/02/03 20:24:42;;;;;;;36.45;21.55;;;;;;;5.47;100.00;100840.50;4915153;29;20040;-77
2022/02/03 20:27:08;;;;;;;39.70;22.55;;;;;;;5.57;100.00;100851.06;4945196;29;20455;-76
2022/02/03 20:29:34;;;;;;;36.70;22.23;;;;;;;5.58;100.00;100847.53;4946291;28;20039;-76
2022/02/03 20:32:00;;;;;;;37.13;21.55;;;;;;;5.55;100.00;100843.34;4929563;29;20043;-77
2022/02/03 20:34:26;;;;;;;37.22;21.60;;;;;;;5.57;100.00;100838.88;4913357;29;20126;-76
2022/02/03 20:36:52;;;;;;;36.33;22.85;;;;;;;5.58;100.00;100839.72;4912124;29;20151;-77
2022/02/03 20:39:17;;;;;;;36.15;23.73;;;;;;;5.56;100.00;100841.63;4912347;29;20288;-76
2022/02/03 20:41:43;;;;;;;36.92;23.35;;;;;;;5.48;100.00;100836.94;4933899;29;20063;-76
2022/02/03 20:44:09;;;;;;;38.50;23.67;;;;;;;5.42;100.00;100835.59;4915072;29;20487;-77
2022/02/03 20:46:36;;;;;;;36.40;23.83;;;;;;;5.38;100.00;100836.78;4931488;29;20024;-76
2022/02/03 20:49:02;;;;;;;40.08;24.23;;;;;;;5.41;100.00;100835.75;4934272;29;20371;-76
2022/02/03 20:51:29;;;;;;;40.83;23.45;;;;;;;5.46;100.00;100833.63;4931591;29;20314;-75
2022/02/03 20:53:55;;;;;;;36.47;22.48;;;;;;;5.46;100.00;100831.00;4954748;28;20502;-78
2022/02/03 20:56:21;;;;;;;33.22;22.10;;;;;;;5.46;100.00;100831.00;4916328;29;20068;-75
2022/02/03 20:58:48;;;;;;;39.03;21.67;;;;;;;5.51;100.00;100838.50;4938595;29;20036;-79
2022/02/03 21:03:44;;;;;;;37.15;22.60;;;;;;;5.54;100.00;100828.72;4936760;29;20051;-75
2022/02/03 21:06:12;;;;;;;32.35;21.23;;;;;;;5.53;100.00;100834.84;4935801;28;20067;-76
2022/02/03 21:08:41;;;;;;;40.05;21.75;;;;;;;5.49;100.00;100815.19;4933115;29;20078;-75
2022/02/03 21:11:07;;;;;;;34.60;20.95;;;;;;;5.54;100.00;100820.06;4934644;29;20043;-76
2022/02/03 21:13:33;;;;;;;33.28;21.08;;;;;;;5.57;100.00;100830.25;4918032;29;20040;-76
2022/02/03 21:16:01;;;;;;;36.92;22.25;;;;;;;5.52;100.00;100819.34;4931302;29;20043;-75
2022/02/03 21:18:29;;;;;;;38.20;22.73;;;;;;;5.46;100.00;100815.41;4953388;28;20054;-77
2022/02/03 21:20:55;;;;;;;38.85;22.30;;;;;;;5.46;100.00;100802.41;4916896;29;20043;-75
2022/02/03 21:23:21;;;;;;;35.42;22.77;;;;;;;5.43;100.00;100816.47;4922811;29;20456;-76
2022/02/03 21:25:51;;;;;;;37.15;23.02;;;;;;;5.36;100.00;100811.81;4939162;29;20036;-77
2022/02/03 21:28:25;;;;;;;39.50;23.45;;;;;;;5.43;100.00;100819.06;4932975;29;20032;-76